createdAt,value
2022-12-28T00:00:02.969Z,1.84
2022-12-28T00:05:06.388Z,1.80
2022-12-28T00:10:09.804Z,1.80
2022-12-28T00:15:13.017Z,1.90
2022-12-28T00:20:16.260Z,2.00
2022-12-28T00:25:19.317Z,2.00
2022-12-28T00:30:22.361Z,2.00
2022-12-28T00:35:25.427Z,2.00
2022-12-28T00:40:28.652Z,2.04
2022-12-28T00:45:31.885Z,2.12
2022-12-28T00:50:34.962Z,2.20
2022-12-28T00:55:39.493Z,2.20
2022-12-28T01:00:43.133Z,2.20
2022-12-28T01:05:46.319Z,2.20
2022-12-28T01:10:50.141Z,2.30
2022-12-28T01:15:53.184Z,2.30
2022-12-28T01:20:56.150Z,2.30
2022-12-28T01:26:03.100Z,2.30
2022-12-28T01:31:13.042Z,2.40
2022-12-28T01:36:22.829Z,2.48
2022-12-28T01:41:29.033Z,2.40
2022-12-28T01:46:35.549Z,2.40
2022-12-28T01:51:54.412Z,2.40
2022-12-28T01:56:58.254Z,2.46
2022-12-28T02:02:01.524Z,2.40
2022-12-28T02:07:05.294Z,2.30
2022-12-28T02:12:15.477Z,2.20
2022-12-28T02:17:18.569Z,2.20
2022-12-28T02:22:54.641Z,2.30
2022-12-28T02:28:41.755Z,2.30
2022-12-28T02:34:13.444Z,2.28
2022-12-28T02:39:25.934Z,2.16
2022-12-28T02:44:48.226Z,2.10
2022-12-28T02:50:20.519Z,2.04
2022-12-28T02:56:08.701Z,2.00
2022-12-28T03:01:45.123Z,2.08
2022-12-28T03:07:31.599Z,2.00
2022-12-28T03:12:53.971Z,2.00
2022-12-28T03:18:38.233Z,2.00
2022-12-28T03:24:04.158Z,1.90
2022-12-28T03:29:32.274Z,1.90
2022-12-28T03:34:35.765Z,1.90
2022-12-28T03:40:12.801Z,2.00
2022-12-28T03:45:46.389Z,2.10
2022-12-28T03:50:51.505Z,2.10
2022-12-28T03:56:07.523Z,2.10
2022-12-28T04:01:11.526Z,2.08
2022-12-28T04:06:18.243Z,2.10
2022-12-28T04:11:21.590Z,2.14
2022-12-28T04:16:24.637Z,2.10
2022-12-28T04:21:27.794Z,2.10
2022-12-28T04:26:31.000Z,2.06
2022-12-28T04:31:34.229Z,2.10
2022-12-28T04:36:38.545Z,2.08
2022-12-28T04:41:41.865Z,2.00
2022-12-28T04:46:44.998Z,1.98
2022-12-28T04:51:48.071Z,1.90
2022-12-28T04:56:51.073Z,1.90
2022-12-28T05:01:54.272Z,2.00
2022-12-28T05:06:57.702Z,2.10
2022-12-28T05:12:01.003Z,2.10
2022-12-28T05:17:04.845Z,2.06
2022-12-28T05:22:12.150Z,2.00
2022-12-28T05:27:15.376Z,2.00
2022-12-28T05:32:18.347Z,2.10
2022-12-28T05:37:22.356Z,2.10
2022-12-28T05:42:25.687Z,2.16
2022-12-28T05:47:28.897Z,2.10
2022-12-28T05:52:32.831Z,2.02
2022-12-28T05:57:35.927Z,2.00
2022-12-28T06:02:39.422Z,2.00
2022-12-28T06:07:42.691Z,2.02
2022-12-28T06:12:45.766Z,2.10
2022-12-28T06:17:53.511Z,2.20
2022-12-28T06:22:56.580Z,2.12
2022-12-28T06:27:59.697Z,2.10
2022-12-28T06:33:03.003Z,2.00
2022-12-28T06:38:06.724Z,2.00
2022-12-28T06:43:09.817Z,2.00
2022-12-28T06:48:12.823Z,2.10
2022-12-28T06:53:15.973Z,2.12
2022-12-28T06:58:19.032Z,2.20
2022-12-28T07:03:24.569Z,2.20
2022-12-28T07:08:28.779Z,2.18
2022-12-28T07:13:31.958Z,2.14
2022-12-28T07:18:35.047Z,2.10
2022-12-28T07:23:39.083Z,2.10
2022-12-28T07:28:47.198Z,2.22
2022-12-28T07:33:53.033Z,2.30
2022-12-28T07:38:57.457Z,2.40
2022-12-28T07:44:01.133Z,2.40
2022-12-28T07:49:05.253Z,2.38
2022-12-28T07:54:08.611Z,2.38
2022-12-28T07:59:13.590Z,2.40
2022-12-28T08:04:18.160Z,2.50
2022-12-28T08:09:21.367Z,2.60
2022-12-28T08:14:24.477Z,2.64
2022-12-28T08:19:27.579Z,2.66
2022-12-28T08:24:30.893Z,2.60
2022-12-28T08:29:34.110Z,2.60
2022-12-28T08:34:37.419Z,2.60
2022-12-28T08:39:40.538Z,2.70
2022-12-28T08:44:43.625Z,2.88
2022-12-28T08:49:46.944Z,2.86
2022-12-28T08:54:50.448Z,2.86
2022-12-28T08:59:53.455Z,2.90
2022-12-28T09:04:56.559Z,2.90
2022-12-28T09:10:00.006Z,3.02
2022-12-28T09:15:03.278Z,3.12
2022-12-28T09:20:07.397Z,3.20
2022-12-28T09:25:10.513Z,3.20
2022-12-28T09:30:13.735Z,3.20
2022-12-28T09:35:16.887Z,3.20
2022-12-28T09:40:20.161Z,3.30
2022-12-28T09:45:26.533Z,3.40
2022-12-28T09:50:35.630Z,3.46
2022-12-28T09:55:43.933Z,3.44
2022-12-28T10:01:11.425Z,3.46
2022-12-28T10:06:21.072Z,3.50
2022-12-28T10:11:30.676Z,3.50
2022-12-28T10:16:33.870Z,3.60
2022-12-28T10:21:37.339Z,3.62
2022-12-28T10:26:47.343Z,3.60
2022-12-28T10:32:20.617Z,3.60
2022-12-28T10:37:26.174Z,3.70
2022-12-28T10:42:40.712Z,3.74
2022-12-28T10:47:49.269Z,3.80
2022-12-28T10:52:58.984Z,3.80
2022-12-28T10:58:30.753Z,3.80
2022-12-28T11:03:38.980Z,3.80
2022-12-28T11:08:44.823Z,3.88
2022-12-28T11:13:56.826Z,4.00
2022-12-28T11:19:00.749Z,3.98
2022-12-28T11:24:05.545Z,4.00
2022-12-28T11:29:13.509Z,4.00
2022-12-28T11:34:23.613Z,4.08
2022-12-28T11:39:26.600Z,4.18
2022-12-28T11:44:29.701Z,4.20
2022-12-28T11:49:35.975Z,4.20
2022-12-28T11:54:50.563Z,4.20
2022-12-28T11:59:53.660Z,4.30
2022-12-28T12:04:56.765Z,4.40
2022-12-28T12:10:36.837Z,4.40
2022-12-28T12:15:44.792Z,4.40
2022-12-28T12:21:11.647Z,4.40
2022-12-28T12:26:48.169Z,4.48
2022-12-28T12:32:02.816Z,4.50
2022-12-28T12:37:30.885Z,4.50
2022-12-28T12:43:09.935Z,4.50
2022-12-28T12:48:22.968Z,4.50
2022-12-28T12:54:01.402Z,4.60
2022-12-28T12:59:47.110Z,4.50
2022-12-28T13:04:51.452Z,4.50
2022-12-28T13:10:02.102Z,4.40
2022-12-28T13:15:12.458Z,4.40
2022-12-28T13:20:22.008Z,4.42
2022-12-28T13:25:34.672Z,4.40
2022-12-28T13:30:38.724Z,4.30
2022-12-28T13:35:41.819Z,4.30
2022-12-28T13:40:53.856Z,4.24
2022-12-28T13:46:08.235Z,4.30
2022-12-28T13:51:16.032Z,4.40
2022-12-28T13:56:22.506Z,4.30
2022-12-28T14:01:34.463Z,4.20
2022-12-28T14:06:37.932Z,4.10
2022-12-28T14:11:46.713Z,4.00
2022-12-28T14:16:49.877Z,4.10
2022-12-28T14:21:53.432Z,4.08
2022-12-28T14:26:58.654Z,4.02
2022-12-28T14:32:07.367Z,4.00
2022-12-28T14:37:39.171Z,3.98
2022-12-28T14:42:42.288Z,4.00
2022-12-28T14:47:48.215Z,4.08
2022-12-28T14:53:13.923Z,4.00
2022-12-28T14:58:39.633Z,4.00
2022-12-28T15:03:48.820Z,4.00
2022-12-28T15:09:01.365Z,4.12
2022-12-28T15:14:04.607Z,4.20
2022-12-28T15:19:07.833Z,4.12
2022-12-28T15:24:11.022Z,4.10
2022-12-28T15:29:22.103Z,4.20
2022-12-28T15:34:35.673Z,4.30
2022-12-28T15:39:39.079Z,4.30
2022-12-28T15:44:42.189Z,4.20
2022-12-28T15:49:45.405Z,4.20
2022-12-28T15:54:48.507Z,4.30
2022-12-28T15:59:51.632Z,4.30
2022-12-28T16:04:56.259Z,4.30
2022-12-28T16:09:59.357Z,4.26
2022-12-28T16:15:02.664Z,4.20
2022-12-28T16:20:07.182Z,4.30
2022-12-28T16:25:11.148Z,4.40
2022-12-28T16:30:14.856Z,4.38
2022-12-28T16:35:18.067Z,4.30
2022-12-28T16:40:21.302Z,4.30
2022-12-28T16:45:24.683Z,4.40
2022-12-28T16:50:28.812Z,4.50
2022-12-28T16:55:43.189Z,4.50
2022-12-28T17:00:46.999Z,4.50
2022-12-28T17:05:52.597Z,4.48
2022-12-28T17:10:55.987Z,4.40
2022-12-28T17:16:03.190Z,4.50
2022-12-28T17:21:10.424Z,4.60
2022-12-28T17:26:13.701Z,4.60
2022-12-28T17:31:21.609Z,4.60
2022-12-28T17:36:25.558Z,4.60
2022-12-28T17:41:28.982Z,4.70
2022-12-28T17:46:38.011Z,4.80
2022-12-28T17:51:44.854Z,4.78
2022-12-28T17:56:48.142Z,4.70
2022-12-28T18:01:51.524Z,4.80
2022-12-28T18:06:54.937Z,4.90
2022-12-28T18:11:58.452Z,4.90
2022-12-28T18:17:01.926Z,4.90
2022-12-28T18:22:05.307Z,4.86
2022-12-28T18:27:10.437Z,4.84
2022-12-28T18:32:13.741Z,5.00
2022-12-28T18:37:17.070Z,5.00
2022-12-28T18:42:20.780Z,5.10
2022-12-28T18:47:24.532Z,5.06
2022-12-28T18:52:27.825Z,5.00
2022-12-28T18:57:30.917Z,5.08
2022-12-28T19:02:34.497Z,5.12
2022-12-28T19:07:38.293Z,5.20
2022-12-28T19:12:44.263Z,5.20
2022-12-28T19:17:47.340Z,5.20
2022-12-28T19:22:50.556Z,5.26
2022-12-28T19:27:53.954Z,5.30
2022-12-28T19:32:57.272Z,5.38
2022-12-28T19:38:00.474Z,5.30
2022-12-28T19:43:04.240Z,5.30
2022-12-28T19:48:07.298Z,5.40
2022-12-28T19:53:10.524Z,5.44
2022-12-28T19:58:13.821Z,5.50
2022-12-28T20:03:17.046Z,5.42
2022-12-28T20:08:20.342Z,5.40
2022-12-28T20:13:23.474Z,5.50
2022-12-28T20:18:26.759Z,5.56
2022-12-28T20:23:30.806Z,5.50
2022-12-28T20:28:34.707Z,5.50
2022-12-28T20:33:38.558Z,5.58
2022-12-28T20:38:42.491Z,5.60
2022-12-28T20:43:48.757Z,5.60
2022-12-28T20:48:54.097Z,5.60
2022-12-28T20:53:57.337Z,5.70
2022-12-28T20:59:00.529Z,5.80
2022-12-28T21:04:05.004Z,5.70
2022-12-28T21:09:08.375Z,5.70
2022-12-28T21:14:12.075Z,5.80
2022-12-28T21:19:15.194Z,5.80
2022-12-28T21:24:18.426Z,5.80
2022-12-28T21:29:25.717Z,5.80
2022-12-28T21:34:30.150Z,5.80
2022-12-28T21:39:33.300Z,5.90
2022-12-28T21:44:36.569Z,5.90
2022-12-28T21:49:39.972Z,5.90
2022-12-28T21:54:43.084Z,5.90
2022-12-28T21:59:46.182Z,5.92
2022-12-28T22:05:08.342Z,6.02
2022-12-28T22:10:31.539Z,6.00
2022-12-28T22:15:53.111Z,6.00
2022-12-28T22:20:56.669Z,6.08
2022-12-28T22:25:59.680Z,6.10
2022-12-28T22:31:08.232Z,6.00
2022-12-28T22:36:19.237Z,6.08
2022-12-28T22:41:22.924Z,6.12
2022-12-28T22:46:26.068Z,6.14
2022-12-28T22:51:29.256Z,6.10
2022-12-28T22:56:32.763Z,6.00
2022-12-28T23:01:36.307Z,5.90
2022-12-28T23:06:39.688Z,6.00
2022-12-28T23:11:43.032Z,6.00
2022-12-28T23:16:47.325Z,6.04
2022-12-28T23:22:09.380Z,6.00
2022-12-28T23:27:21.294Z,5.90
2022-12-28T23:32:24.908Z,6.00
2022-12-28T23:37:28.520Z,6.00
2022-12-28T23:42:31.635Z,5.98
2022-12-28T23:47:35.642Z,5.90
2022-12-28T23:52:39.074Z,5.90
2022-12-28T23:57:42.285Z,6.00
